sensor_id;sensor_type;location;lat;lon;timestamp;temperature;humidity
41256;DHT22;26989;45.524;10.938;2023-01-28T00:01:04;2.30;99.90
41256;DHT22;26989;45.524;10.938;2023-01-28T00:03:32;2.30;99.90
41256;DHT22;26989;45.524;10.938;2023-01-28T00:06:04;2.30;99.90
41256;DHT22;26989;45.524;10.938;2023-01-28T00:08:32;2.30;99.90
41256;DHT22;26989;45.524;10.938;2023-01-28T00:11:03;2.40;99.90
41256;DHT22;26989;45.524;10.938;2023-01-28T00:13:30;2.40;99.90
41256;DHT22;26989;45.524;10.938;2023-01-28T00:16:03;2.30;99.90
41256;DHT22;26989;45.524;10.938;2023-01-28T00:18:34;2.30;99.90
41256;DHT22;26989;45.524;10.938;2023-01-28T00:23:33;2.30;99.90
41256;DHT22;26989;45.524;10.938;2023-01-28T00:26:01;2.30;99.90
41256;DHT22;26989;45.524;10.938;2023-01-28T00:28:28;2.30;99.90
41256;DHT22;26989;45.524;10.938;2023-01-28T00:30:55;2.30;99.90
41256;DHT22;26989;45.524;10.938;2023-01-28T00:33:23;2.40;99.90
41256;DHT22;26989;45.524;10.938;2023-01-28T00:36:00;2.30;99.90
41256;DHT22;26989;45.524;10.938;2023-01-28T00:38:27;2.40;99.90
41256;DHT22;26989;45.524;10.938;2023-01-28T00:40:54;2.40;99.90
41256;DHT22;26989;45.524;10.938;2023-01-28T00:43:22;2.40;99.90
41256;DHT22;26989;45.524;10.938;2023-01-28T00:45:49;2.40;99.90
41256;DHT22;26989;45.524;10.938;2023-01-28T00:48:16;2.40;99.90
41256;DHT22;26989;45.524;10.938;2023-01-28T00:50:43;2.40;99.90
41256;DHT22;26989;45.524;10.938;2023-01-28T00:53:11;2.40;99.90
41256;DHT22;26989;45.524;10.938;2023-01-28T00:55:38;2.40;99.90
41256;DHT22;26989;45.524;10.938;2023-01-28T00:58:05;2.40;99.90
41256;DHT22;26989;45.524;10.938;2023-01-28T01:00:31;2.40;99.90
41256;DHT22;26989;45.524;10.938;2023-01-28T01:02:58;2.40;99.90
41256;DHT22;26989;45.524;10.938;2023-01-28T01:05:25;2.30;99.90
41256;DHT22;26989;45.524;10.938;2023-01-28T01:07:52;2.30;99.90
41256;DHT22;26989;45.524;10.938;2023-01-28T01:10:19;2.40;99.90
41256;DHT22;26989;45.524;10.938;2023-01-28T01:12:47;2.40;99.90
41256;DHT22;26989;45.524;10.938;2023-01-28T01:15:16;2.30;99.90
41256;DHT22;26989;45.524;10.938;2023-01-28T01:17:46;2.30;99.90
41256;DHT22;26989;45.524;10.938;2023-01-28T01:20:19;2.30;99.90
41256;DHT22;26989;45.524;10.938;2023-01-28T01:22:46;2.30;99.90
41256;DHT22;26989;45.524;10.938;2023-01-28T01:25:15;2.30;99.90
41256;DHT22;26989;45.524;10.938;2023-01-28T01:27:43;2.30;99.90
41256;DHT22;26989;45.524;10.938;2023-01-28T01:30:11;2.30;99.90
41256;DHT22;26989;45.524;10.938;2023-01-28T01:32:38;2.20;99.90
41256;DHT22;26989;45.524;10.938;2023-01-28T01:35:06;2.30;99.90
41256;DHT22;26989;45.524;10.938;2023-01-28T01:37:34;2.30;99.90
41256;DHT22;26989;45.524;10.938;2023-01-28T01:40:03;2.20;99.90
41256;DHT22;26989;45.524;10.938;2023-01-28T01:42:33;2.20;99.90
41256;DHT22;26989;45.524;10.938;2023-01-28T01:45:05;2.20;99.90
41256;DHT22;26989;45.524;10.938;2023-01-28T01:50:04;2.20;99.90
41256;DHT22;26989;45.524;10.938;2023-01-28T01:52:34;2.20;99.90
41256;DHT22;26989;45.524;10.938;2023-01-28T01:55:05;2.20;99.90
41256;DHT22;26989;45.524;10.938;2023-01-28T01:57:35;2.20;99.90
41256;DHT22;26989;45.524;10.938;2023-01-28T02:00:04;2.00;99.90
41256;DHT22;26989;45.524;10.938;2023-01-28T02:02:36;2.10;99.90
41256;DHT22;26989;45.524;10.938;2023-01-28T02:05:04;2.10;99.90
41256;DHT22;26989;45.524;10.938;2023-01-28T02:07:31;2.00;99.90
41256;DHT22;26989;45.524;10.938;2023-01-28T02:09:59;2.10;99.90
41256;DHT22;26989;45.524;10.938;2023-01-28T02:12:31;2.10;99.90
41256;DHT22;26989;45.524;10.938;2023-01-28T02:15:07;2.10;99.90
41256;DHT22;26989;45.524;10.938;2023-01-28T02:17:35;2.10;99.90
41256;DHT22;26989;45.524;10.938;2023-01-28T02:20:11;2.00;99.90
41256;DHT22;26989;45.524;10.938;2023-01-28T02:31:23;1.90;99.90
41256;DHT22;26989;45.524;10.938;2023-01-28T02:39:12;1.90;99.90
41256;DHT22;26989;45.524;10.938;2023-01-28T02:42:11;1.90;99.90
41256;DHT22;26989;45.524;10.938;2023-01-28T02:44:41;1.90;99.90
41256;DHT22;26989;45.524;10.938;2023-01-28T02:47:12;1.90;99.90
41256;DHT22;26989;45.524;10.938;2023-01-28T02:50:07;1.90;99.90
41256;DHT22;26989;45.524;10.938;2023-01-28T02:52:44;1.90;99.90
41256;DHT22;26989;45.524;10.938;2023-01-28T02:55:50;1.80;99.90
41256;DHT22;26989;45.524;10.938;2023-01-28T03:06:02;1.90;99.90
41256;DHT22;26989;45.524;10.938;2023-01-28T03:08:38;1.90;99.90
41256;DHT22;26989;45.524;10.938;2023-01-28T03:11:26;1.80;99.90
41256;DHT22;26989;45.524;10.938;2023-01-28T03:14:13;1.80;99.90
41256;DHT22;26989;45.524;10.938;2023-01-28T03:17:00;1.80;99.90
41256;DHT22;26989;45.524;10.938;2023-01-28T03:19:46;1.80;99.90
41256;DHT22;26989;45.524;10.938;2023-01-28T03:22:35;1.70;99.90
41256;DHT22;26989;45.524;10.938;2023-01-28T03:25:25;1.70;99.90
41256;DHT22;26989;45.524;10.938;2023-01-28T03:28:15;1.70;99.90
41256;DHT22;26989;45.524;10.938;2023-01-28T03:31:09;1.70;99.90
41256;DHT22;26989;45.524;10.938;2023-01-28T03:33:57;1.70;99.90
41256;DHT22;26989;45.524;10.938;2023-01-28T03:36:45;1.80;99.90
41256;DHT22;26989;45.524;10.938;2023-01-28T03:39:29;1.80;99.90
41256;DHT22;26989;45.524;10.938;2023-01-28T03:42:08;1.80;99.90
41256;DHT22;26989;45.524;10.938;2023-01-28T03:44:36;1.70;99.90
41256;DHT22;26989;45.524;10.938;2023-01-28T03:47:20;1.70;99.90
41256;DHT22;26989;45.524;10.938;2023-01-28T03:49:50;1.70;99.90
41256;DHT22;26989;45.524;10.938;2023-01-28T03:52:20;1.70;99.90
41256;DHT22;26989;45.524;10.938;2023-01-28T03:54:47;1.70;99.90
41256;DHT22;26989;45.524;10.938;2023-01-28T03:57:15;1.70;99.90
41256;DHT22;26989;45.524;10.938;2023-01-28T03:59:45;1.70;99.90
41256;DHT22;26989;45.524;10.938;2023-01-28T04:02:12;1.70;99.90
41256;DHT22;26989;45.524;10.938;2023-01-28T04:04:39;1.70;99.90
41256;DHT22;26989;45.524;10.938;2023-01-28T04:07:08;1.70;99.90
41256;DHT22;26989;45.524;10.938;2023-01-28T04:09:40;1.70;99.90
41256;DHT22;26989;45.524;10.938;2023-01-28T04:12:07;1.70;99.90
41256;DHT22;26989;45.524;10.938;2023-01-28T04:14:34;1.60;99.90
41256;DHT22;26989;45.524;10.938;2023-01-28T04:17:01;1.60;99.90
41256;DHT22;26989;45.524;10.938;2023-01-28T04:19:28;1.50;99.90
41256;DHT22;26989;45.524;10.938;2023-01-28T04:21:57;1.40;99.90
41256;DHT22;26989;45.524;10.938;2023-01-28T04:24:24;1.40;99.90
41256;DHT22;26989;45.524;10.938;2023-01-28T04:26:51;1.50;99.90
41256;DHT22;26989;45.524;10.938;2023-01-28T04:29:20;1.60;99.90
41256;DHT22;26989;45.524;10.938;2023-01-28T04:31:47;1.60;99.90
41256;DHT22;26989;45.524;10.938;2023-01-28T04:34:14;1.50;99.90
41256;DHT22;26989;45.524;10.938;2023-01-28T04:36:40;1.50;99.90
41256;DHT22;26989;45.524;10.938;2023-01-28T04:39:07;1.40;99.90
41256;DHT22;26989;45.524;10.938;2023-01-28T04:41:34;1.50;99.90
41256;DHT22;26989;45.524;10.938;2023-01-28T04:44:01;1.40;99.90
41256;DHT22;26989;45.524;10.938;2023-01-28T04:46:28;1.40;99.90
41256;DHT22;26989;45.524;10.938;2023-01-28T04:48:54;1.50;99.90
41256;DHT22;26989;45.524;10.938;2023-01-28T04:51:21;1.50;99.90
41256;DHT22;26989;45.524;10.938;2023-01-28T04:53:48;1.50;99.90
41256;DHT22;26989;45.524;10.938;2023-01-28T04:56:15;1.50;99.90
41256;DHT22;26989;45.524;10.938;2023-01-28T04:58:42;1.50;99.90
41256;DHT22;26989;45.524;10.938;2023-01-28T05:01:08;1.50;99.90
41256;DHT22;26989;45.524;10.938;2023-01-28T05:03:35;1.40;99.90
41256;DHT22;26989;45.524;10.938;2023-01-28T05:06:02;1.40;99.90
41256;DHT22;26989;45.524;10.938;2023-01-28T05:08:30;1.40;99.90
41256;DHT22;26989;45.524;10.938;2023-01-28T05:10:57;1.30;99.90
41256;DHT22;26989;45.524;10.938;2023-01-28T05:13:24;1.20;99.90
41256;DHT22;26989;45.524;10.938;2023-01-28T05:15:54;1.30;99.90
41256;DHT22;26989;45.524;10.938;2023-01-28T05:18:21;1.30;99.90
41256;DHT22;26989;45.524;10.938;2023-01-28T05:20:48;1.40;99.90
41256;DHT22;26989;45.524;10.938;2023-01-28T05:23:14;1.40;99.90
41256;DHT22;26989;45.524;10.938;2023-01-28T05:25:41;1.30;99.90
41256;DHT22;26989;45.524;10.938;2023-01-28T05:28:08;1.20;99.90
41256;DHT22;26989;45.524;10.938;2023-01-28T05:30:37;1.10;99.90
41256;DHT22;26989;45.524;10.938;2023-01-28T05:33:04;1.20;99.90
41256;DHT22;26989;45.524;10.938;2023-01-28T05:35:31;1.20;99.90
41256;DHT22;26989;45.524;10.938;2023-01-28T05:37:58;1.30;99.90
41256;DHT22;26989;45.524;10.938;2023-01-28T05:40:25;1.40;99.90
41256;DHT22;26989;45.524;10.938;2023-01-28T05:42:52;1.30;99.90
41256;DHT22;26989;45.524;10.938;2023-01-28T05:45:19;1.10;99.90
41256;DHT22;26989;45.524;10.938;2023-01-28T05:47:46;1.10;99.90
41256;DHT22;26989;45.524;10.938;2023-01-28T05:50:13;1.00;99.90
41256;DHT22;26989;45.524;10.938;2023-01-28T05:52:41;0.90;99.90
41256;DHT22;26989;45.524;10.938;2023-01-28T05:55:09;0.90;99.90
41256;DHT22;26989;45.524;10.938;2023-01-28T05:57:36;0.80;99.90
41256;DHT22;26989;45.524;10.938;2023-01-28T06:00:03;0.80;99.90
41256;DHT22;26989;45.524;10.938;2023-01-28T06:02:31;0.80;99.90
41256;DHT22;26989;45.524;10.938;2023-01-28T06:04:59;0.80;99.90
41256;DHT22;26989;45.524;10.938;2023-01-28T06:07:26;0.70;99.90
41256;DHT22;26989;45.524;10.938;2023-01-28T06:09:53;0.80;99.90
41256;DHT22;26989;45.524;10.938;2023-01-28T06:12:19;0.70;99.90
41256;DHT22;26989;45.524;10.938;2023-01-28T06:14:46;0.70;99.90
41256;DHT22;26989;45.524;10.938;2023-01-28T06:17:13;0.70;99.90
41256;DHT22;26989;45.524;10.938;2023-01-28T06:19:40;0.60;99.90
41256;DHT22;26989;45.524;10.938;2023-01-28T06:22:07;0.70;99.90
41256;DHT22;26989;45.524;10.938;2023-01-28T06:24:34;0.60;99.90
41256;DHT22;26989;45.524;10.938;2023-01-28T06:27:01;0.60;99.90
41256;DHT22;26989;45.524;10.938;2023-01-28T06:29:28;0.70;99.90
41256;DHT22;26989;45.524;10.938;2023-01-28T06:31:55;0.60;99.90
41256;DHT22;26989;45.524;10.938;2023-01-28T06:34:22;0.70;99.90
41256;DHT22;26989;45.524;10.938;2023-01-28T06:36:49;0.50;99.90
41256;DHT22;26989;45.524;10.938;2023-01-28T06:39:19;0.50;99.90
41256;DHT22;26989;45.524;10.938;2023-01-28T06:41:48;0.50;99.90
41256;DHT22;26989;45.524;10.938;2023-01-28T06:44:16;0.50;99.90
41256;DHT22;26989;45.524;10.938;2023-01-28T06:46:42;0.50;99.90
41256;DHT22;26989;45.524;10.938;2023-01-28T06:49:09;0.70;99.90
41256;DHT22;26989;45.524;10.938;2023-01-28T06:51:36;0.60;99.90
41256;DHT22;26989;45.524;10.938;2023-01-28T06:54:04;0.40;99.90
41256;DHT22;26989;45.524;10.938;2023-01-28T06:56:31;0.70;99.90
41256;DHT22;26989;45.524;10.938;2023-01-28T06:58:57;0.70;99.90
41256;DHT22;26989;45.524;10.938;2023-01-28T07:01:24;0.70;99.90
41256;DHT22;26989;45.524;10.938;2023-01-28T07:03:51;0.80;99.90
41256;DHT22;26989;45.524;10.938;2023-01-28T07:06:18;0.90;99.90
41256;DHT22;26989;45.524;10.938;2023-01-28T07:08:46;1.00;99.90
41256;DHT22;26989;45.524;10.938;2023-01-28T07:11:13;0.80;99.90
41256;DHT22;26989;45.524;10.938;2023-01-28T07:13:40;0.80;99.90
41256;DHT22;26989;45.524;10.938;2023-01-28T07:16:07;0.90;99.90
41256;DHT22;26989;45.524;10.938;2023-01-28T07:18:34;0.90;99.90
41256;DHT22;26989;45.524;10.938;2023-01-28T07:21:01;0.90;99.90
41256;DHT22;26989;45.524;10.938;2023-01-28T07:23:28;0.90;99.90
41256;DHT22;26989;45.524;10.938;2023-01-28T07:26:03;0.90;99.90
41256;DHT22;26989;45.524;10.938;2023-01-28T07:28:30;1.00;99.90
41256;DHT22;26989;45.524;10.938;2023-01-28T07:30:57;1.00;99.90
41256;DHT22;26989;45.524;10.938;2023-01-28T07:33:38;1.00;99.90
41256;DHT22;26989;45.524;10.938;2023-01-28T07:36:06;1.10;99.90
41256;DHT22;26989;45.524;10.938;2023-01-28T07:38:41;1.10;99.90
41256;DHT22;26989;45.524;10.938;2023-01-28T07:41:08;1.10;99.90
41256;DHT22;26989;45.524;10.938;2023-01-28T07:43:35;1.10;99.90
41256;DHT22;26989;45.524;10.938;2023-01-28T07:46:02;1.20;99.90
41256;DHT22;26989;45.524;10.938;2023-01-28T07:48:34;1.40;99.90
41256;DHT22;26989;45.524;10.938;2023-01-28T07:51:07;1.60;99.90
41256;DHT22;26989;45.524;10.938;2023-01-28T07:53:35;1.70;99.90
41256;DHT22;26989;45.524;10.938;2023-01-28T07:56:04;1.80;99.90
41256;DHT22;26989;45.524;10.938;2023-01-28T07:58:32;2.00;99.90
41256;DHT22;26989;45.524;10.938;2023-01-28T08:01:01;2.00;99.90
41256;DHT22;26989;45.524;10.938;2023-01-28T08:03:28;2.10;99.90
41256;DHT22;26989;45.524;10.938;2023-01-28T08:05:56;2.20;99.90
41256;DHT22;26989;45.524;10.938;2023-01-28T08:08:24;2.20;99.90
41256;DHT22;26989;45.524;10.938;2023-01-28T08:10:55;2.20;99.90
41256;DHT22;26989;45.524;10.938;2023-01-28T08:13:22;2.30;99.90
41256;DHT22;26989;45.524;10.938;2023-01-28T08:15:54;2.30;99.90
41256;DHT22;26989;45.524;10.938;2023-01-28T08:18:22;2.30;99.90
41256;DHT22;26989;45.524;10.938;2023-01-28T08:20:54;2.30;99.90
41256;DHT22;26989;45.524;10.938;2023-01-28T08:23:21;2.30;99.90
41256;DHT22;26989;45.524;10.938;2023-01-28T08:25:50;2.40;99.90
41256;DHT22;26989;45.524;10.938;2023-01-28T08:28:16;2.40;99.90
41256;DHT22;26989;45.524;10.938;2023-01-28T08:30:44;2.40;99.90
41256;DHT22;26989;45.524;10.938;2023-01-28T08:33:12;2.40;99.90
41256;DHT22;26989;45.524;10.938;2023-01-28T08:35:40;2.50;99.90
41256;DHT22;26989;45.524;10.938;2023-01-28T08:38:10;2.60;99.90
41256;DHT22;26989;45.524;10.938;2023-01-28T08:40:38;2.60;99.90
41256;DHT22;26989;45.524;10.938;2023-01-28T08:43:05;2.60;99.90
41256;DHT22;26989;45.524;10.938;2023-01-28T08:45:32;2.60;99.90
41256;DHT22;26989;45.524;10.938;2023-01-28T08:48:03;2.70;99.90
41256;DHT22;26989;45.524;10.938;2023-01-28T08:50:34;2.70;99.90
41256;DHT22;26989;45.524;10.938;2023-01-28T08:53:11;2.80;99.90
41256;DHT22;26989;45.524;10.938;2023-01-28T08:55:38;2.80;99.90
41256;DHT22;26989;45.524;10.938;2023-01-28T08:58:16;2.80;99.90
41256;DHT22;26989;45.524;10.938;2023-01-28T09:00:44;2.90;99.90
41256;DHT22;26989;45.524;10.938;2023-01-28T09:03:11;2.90;99.90
41256;DHT22;26989;45.524;10.938;2023-01-28T09:05:38;2.90;99.90
41256;DHT22;26989;45.524;10.938;2023-01-28T09:08:07;2.90;99.90
41256;DHT22;26989;45.524;10.938;2023-01-28T09:10:34;2.90;99.90
41256;DHT22;26989;45.524;10.938;2023-01-28T09:13:08;3.00;99.90
41256;DHT22;26989;45.524;10.938;2023-01-28T09:15:39;3.00;99.90
41256;DHT22;26989;45.524;10.938;2023-01-28T09:18:07;3.00;99.90
41256;DHT22;26989;45.524;10.938;2023-01-28T09:20:36;3.00;99.90
41256;DHT22;26989;45.524;10.938;2023-01-28T09:23:03;3.10;99.90
41256;DHT22;26989;45.524;10.938;2023-01-28T09:25:30;3.10;99.90
41256;DHT22;26989;45.524;10.938;2023-01-28T09:27:58;3.10;99.90
41256;DHT22;26989;45.524;10.938;2023-01-28T09:30:26;3.20;99.90
41256;DHT22;26989;45.524;10.938;2023-01-28T09:32:55;3.10;99.90
41256;DHT22;26989;45.524;10.938;2023-01-28T09:35:33;3.10;99.90
41256;DHT22;26989;45.524;10.938;2023-01-28T09:38:01;3.20;99.90
41256;DHT22;26989;45.524;10.938;2023-01-28T09:40:46;3.40;99.90
41256;DHT22;26989;45.524;10.938;2023-01-28T09:43:35;3.40;99.90
41256;DHT22;26989;45.524;10.938;2023-01-28T09:46:11;3.40;99.90
41256;DHT22;26989;45.524;10.938;2023-01-28T09:48:51;3.50;99.90
41256;DHT22;26989;45.524;10.938;2023-01-28T09:51:32;3.60;99.90
41256;DHT22;26989;45.524;10.938;2023-01-28T09:56:59;3.60;99.90
41256;DHT22;26989;45.524;10.938;2023-01-28T09:59:33;3.80;99.90
41256;DHT22;26989;45.524;10.938;2023-01-28T10:05:13;3.90;99.90
41256;DHT22;26989;45.524;10.938;2023-01-28T10:08:27;4.00;99.90
41256;DHT22;26989;45.524;10.938;2023-01-28T10:19:30;4.10;99.90
41256;DHT22;26989;45.524;10.938;2023-01-28T10:22:02;4.20;99.90
41256;DHT22;26989;45.524;10.938;2023-01-28T10:24:37;4.20;99.90
41256;DHT22;26989;45.524;10.938;2023-01-28T10:27:21;4.30;99.90
41256;DHT22;26989;45.524;10.938;2023-01-28T10:29:50;4.30;99.90
41256;DHT22;26989;45.524;10.938;2023-01-28T10:32:32;4.40;99.90
41256;DHT22;26989;45.524;10.938;2023-01-28T10:35:02;4.50;99.90
41256;DHT22;26989;45.524;10.938;2023-01-28T10:37:34;4.50;99.90
41256;DHT22;26989;45.524;10.938;2023-01-28T10:40:03;4.60;99.90
41256;DHT22;26989;45.524;10.938;2023-01-28T10:42:35;4.70;99.90
41256;DHT22;26989;45.524;10.938;2023-01-28T10:45:24;4.70;99.90
41256;DHT22;26989;45.524;10.938;2023-01-28T10:47:59;4.80;99.90
41256;DHT22;26989;45.524;10.938;2023-01-28T10:50:29;4.90;99.90
41256;DHT22;26989;45.524;10.938;2023-01-28T10:53:00;5.00;99.90
41256;DHT22;26989;45.524;10.938;2023-01-28T10:55:37;5.10;99.90
41256;DHT22;26989;45.524;10.938;2023-01-28T10:58:21;5.10;99.90
41256;DHT22;26989;45.524;10.938;2023-01-28T11:00:53;5.10;99.90
41256;DHT22;26989;45.524;10.938;2023-01-28T11:03:24;5.10;99.90
41256;DHT22;26989;45.524;10.938;2023-01-28T11:05:55;5.10;99.90
41256;DHT22;26989;45.524;10.938;2023-01-28T11:08:25;5.20;99.90
41256;DHT22;26989;45.524;10.938;2023-01-28T11:10:54;5.20;99.70
41256;DHT22;26989;45.524;10.938;2023-01-28T11:15:56;5.30;99.90
41256;DHT22;26989;45.524;10.938;2023-01-28T11:18:38;5.40;99.70
41256;DHT22;26989;45.524;10.938;2023-01-28T11:21:26;5.40;99.60
41256;DHT22;26989;45.524;10.938;2023-01-28T11:23:56;5.50;99.60
41256;DHT22;26989;45.524;10.938;2023-01-28T11:26:28;5.50;99.40
41256;DHT22;26989;45.524;10.938;2023-01-28T11:28:58;5.50;99.30
41256;DHT22;26989;45.524;10.938;2023-01-28T11:31:25;5.50;98.60
41256;DHT22;26989;45.524;10.938;2023-01-28T11:33:54;5.60;99.00
41256;DHT22;26989;45.524;10.938;2023-01-28T11:36:28;5.70;98.80
41256;DHT22;26989;45.524;10.938;2023-01-28T11:38:58;5.70;98.50
41256;DHT22;26989;45.524;10.938;2023-01-28T11:43:56;5.80;98.90
41256;DHT22;26989;45.524;10.938;2023-01-28T11:57:35;5.80;98.40
41256;DHT22;26989;45.524;10.938;2023-01-28T12:05:49;5.80;97.80
41256;DHT22;26989;45.524;10.938;2023-01-28T12:08:25;5.80;97.50
41256;DHT22;26989;45.524;10.938;2023-01-28T12:16:49;5.90;97.30
41256;DHT22;26989;45.524;10.938;2023-01-28T12:25:19;6.20;96.70
41256;DHT22;26989;45.524;10.938;2023-01-28T12:36:07;6.50;96.20
41256;DHT22;26989;45.524;10.938;2023-01-28T12:41:46;6.50;95.80
41256;DHT22;26989;45.524;10.938;2023-01-28T12:44:26;6.60;94.60
41256;DHT22;26989;45.524;10.938;2023-01-28T12:47:09;6.70;94.90
41256;DHT22;26989;45.524;10.938;2023-01-28T12:49:54;6.80;95.50
41256;DHT22;26989;45.524;10.938;2023-01-28T12:52:38;6.80;95.70
41256;DHT22;26989;45.524;10.938;2023-01-28T12:57:43;6.90;95.00
41256;DHT22;26989;45.524;10.938;2023-01-28T13:00:32;7.00;94.10
41256;DHT22;26989;45.524;10.938;2023-01-28T13:03:33;7.10;94.50
41256;DHT22;26989;45.524;10.938;2023-01-28T13:06:09;7.20;94.50
41256;DHT22;26989;45.524;10.938;2023-01-28T13:08:40;7.20;93.90
41256;DHT22;26989;45.524;10.938;2023-01-28T13:11:14;7.30;93.80
41256;DHT22;26989;45.524;10.938;2023-01-28T13:13:43;7.40;93.40
41256;DHT22;26989;45.524;10.938;2023-01-28T13:16:11;7.40;93.20
41256;DHT22;26989;45.524;10.938;2023-01-28T13:18:45;7.50;93.00
41256;DHT22;26989;45.524;10.938;2023-01-28T13:23:46;7.60;92.40
41256;DHT22;26989;45.524;10.938;2023-01-28T13:28:50;7.70;92.20
41256;DHT22;26989;45.524;10.938;2023-01-28T13:31:21;7.80;92.00
41256;DHT22;26989;45.524;10.938;2023-01-28T13:36:32;8.00;92.00
41256;DHT22;26989;45.524;10.938;2023-01-28T13:39:17;8.10;91.50
41256;DHT22;26989;45.524;10.938;2023-01-28T13:41:50;8.10;91.50
41256;DHT22;26989;45.524;10.938;2023-01-28T13:46:53;8.10;91.60
41256;DHT22;26989;45.524;10.938;2023-01-28T13:49:36;8.00;91.40
41256;DHT22;26989;45.524;10.938;2023-01-28T13:52:16;8.00;91.60
41256;DHT22;26989;45.524;10.938;2023-01-28T13:55:05;8.10;91.70
41256;DHT22;26989;45.524;10.938;2023-01-28T14:18:27;7.60;91.90
41256;DHT22;26989;45.524;10.938;2023-01-28T14:20:56;7.30;91.80
41256;DHT22;26989;45.524;10.938;2023-01-28T14:23:26;7.20;92.40
41256;DHT22;26989;45.524;10.938;2023-01-28T14:26:12;7.20;92.30
41256;DHT22;26989;45.524;10.938;2023-01-28T14:31:35;7.00;93.10
41256;DHT22;26989;45.524;10.938;2023-01-28T14:34:27;6.90;93.20
41256;DHT22;26989;45.524;10.938;2023-01-28T14:37:08;7.00;93.60
41256;DHT22;26989;45.524;10.938;2023-01-28T14:39:43;7.10;93.40
41256;DHT22;26989;45.524;10.938;2023-01-28T14:42:17;7.20;93.50
41256;DHT22;26989;45.524;10.938;2023-01-28T14:44:47;7.30;93.30
41256;DHT22;26989;45.524;10.938;2023-01-28T14:47:31;7.30;93.20
41256;DHT22;26989;45.524;10.938;2023-01-28T14:58:24;7.30;92.50
41256;DHT22;26989;45.524;10.938;2023-01-28T15:00:56;7.30;92.80
41256;DHT22;26989;45.524;10.938;2023-01-28T15:03:26;7.30;92.90
41256;DHT22;26989;45.524;10.938;2023-01-28T15:06:14;7.20;93.20
41256;DHT22;26989;45.524;10.938;2023-01-28T15:08:44;7.10;93.30
41256;DHT22;26989;45.524;10.938;2023-01-28T15:11:15;7.10;93.60
41256;DHT22;26989;45.524;10.938;2023-01-28T15:13:44;7.00;93.50
41256;DHT22;26989;45.524;10.938;2023-01-28T15:16:23;6.90;93.50
41256;DHT22;26989;45.524;10.938;2023-01-28T15:18:54;6.80;93.90
41256;DHT22;26989;45.524;10.938;2023-01-28T15:21:23;6.80;93.70
41256;DHT22;26989;45.524;10.938;2023-01-28T15:23:54;6.80;93.70
41256;DHT22;26989;45.524;10.938;2023-01-28T15:26:27;6.60;94.00
41256;DHT22;26989;45.524;10.938;2023-01-28T15:28:54;6.60;94.00
41256;DHT22;26989;45.524;10.938;2023-01-28T15:34:11;6.40;94.30
41256;DHT22;26989;45.524;10.938;2023-01-28T15:36:40;6.30;94.40
41256;DHT22;26989;45.524;10.938;2023-01-28T15:39:18;6.20;94.20
41256;DHT22;26989;45.524;10.938;2023-01-28T15:42:05;6.10;94.60
41256;DHT22;26989;45.524;10.938;2023-01-28T15:44:38;5.90;94.90
41256;DHT22;26989;45.524;10.938;2023-01-28T15:47:23;5.90;94.60
41256;DHT22;26989;45.524;10.938;2023-01-28T15:49:56;5.80;95.00
41256;DHT22;26989;45.524;10.938;2023-01-28T15:52:32;5.60;95.70
41256;DHT22;26989;45.524;10.938;2023-01-28T15:54:59;5.50;95.90
41256;DHT22;26989;45.524;10.938;2023-01-28T15:57:32;5.30;96.30
41256;DHT22;26989;45.524;10.938;2023-01-28T16:02:45;5.00;96.70
41256;DHT22;26989;45.524;10.938;2023-01-28T16:08:08;4.80;97.20
41256;DHT22;26989;45.524;10.938;2023-01-28T16:10:36;4.50;97.50
41256;DHT22;26989;45.524;10.938;2023-01-28T16:15:37;4.50;97.70
41256;DHT22;26989;45.524;10.938;2023-01-28T16:18:05;4.40;98.30
41256;DHT22;26989;45.524;10.938;2023-01-28T16:20:32;4.30;98.40
41256;DHT22;26989;45.524;10.938;2023-01-28T16:23:01;4.20;98.50
41256;DHT22;26989;45.524;10.938;2023-01-28T16:25:34;4.10;98.00
41256;DHT22;26989;45.524;10.938;2023-01-28T16:28:16;4.20;99.40
41256;DHT22;26989;45.524;10.938;2023-01-28T16:30:44;4.70;98.60
41256;DHT22;26989;45.524;10.938;2023-01-28T16:33:19;4.70;99.00
41256;DHT22;26989;45.524;10.938;2023-01-28T16:35:46;4.60;99.30
41256;DHT22;26989;45.524;10.938;2023-01-28T16:38:33;4.50;99.40
41256;DHT22;26989;45.524;10.938;2023-01-28T16:41:00;4.30;99.70
41256;DHT22;26989;45.524;10.938;2023-01-28T16:43:27;4.10;99.90
41256;DHT22;26989;45.524;10.938;2023-01-28T16:45:54;4.00;99.90
41256;DHT22;26989;45.524;10.938;2023-01-28T16:48:21;4.00;99.90
41256;DHT22;26989;45.524;10.938;2023-01-28T16:50:48;3.90;99.90
41256;DHT22;26989;45.524;10.938;2023-01-28T16:53:20;3.80;99.90
41256;DHT22;26989;45.524;10.938;2023-01-28T16:55:50;3.70;99.90
41256;DHT22;26989;45.524;10.938;2023-01-28T16:58:23;3.60;99.90
41256;DHT22;26989;45.524;10.938;2023-01-28T17:00:51;3.50;99.90
41256;DHT22;26989;45.524;10.938;2023-01-28T17:03:18;3.50;99.90
41256;DHT22;26989;45.524;10.938;2023-01-28T17:05:46;3.40;99.90
41256;DHT22;26989;45.524;10.938;2023-01-28T17:08:12;3.20;99.90
41256;DHT22;26989;45.524;10.938;2023-01-28T17:10:40;3.20;99.90
41256;DHT22;26989;45.524;10.938;2023-01-28T17:13:09;3.20;99.90
41256;DHT22;26989;45.524;10.938;2023-01-28T17:15:36;3.10;99.90
41256;DHT22;26989;45.524;10.938;2023-01-28T17:18:03;3.10;99.90
41256;DHT22;26989;45.524;10.938;2023-01-28T17:20:30;3.00;99.90
41256;DHT22;26989;45.524;10.938;2023-01-28T17:23:02;3.10;99.90
41256;DHT22;26989;45.524;10.938;2023-01-28T17:25:35;3.20;99.90
41256;DHT22;26989;45.524;10.938;2023-01-28T17:28:03;3.10;99.90
41256;DHT22;26989;45.524;10.938;2023-01-28T17:30:30;3.00;99.90
41256;DHT22;26989;45.524;10.938;2023-01-28T17:32:57;2.90;99.90
41256;DHT22;26989;45.524;10.938;2023-01-28T17:35:24;2.90;99.90
41256;DHT22;26989;45.524;10.938;2023-01-28T17:37:52;2.90;99.90
41256;DHT22;26989;45.524;10.938;2023-01-28T17:40:20;2.90;99.90
41256;DHT22;26989;45.524;10.938;2023-01-28T17:42:47;2.70;99.90
41256;DHT22;26989;45.524;10.938;2023-01-28T17:45:14;2.60;99.90
41256;DHT22;26989;45.524;10.938;2023-01-28T17:47:43;2.80;99.90
41256;DHT22;26989;45.524;10.938;2023-01-28T17:50:10;2.80;99.90
41256;DHT22;26989;45.524;10.938;2023-01-28T17:52:42;2.60;99.90
41256;DHT22;26989;45.524;10.938;2023-01-28T17:55:13;2.60;99.90
41256;DHT22;26989;45.524;10.938;2023-01-28T17:57:43;2.50;99.90
41256;DHT22;26989;45.524;10.938;2023-01-28T18:00:11;2.50;99.90
41256;DHT22;26989;45.524;10.938;2023-01-28T18:02:38;2.60;99.90
41256;DHT22;26989;45.524;10.938;2023-01-28T18:05:05;2.50;99.90
41256;DHT22;26989;45.524;10.938;2023-01-28T18:07:32;2.50;99.90
41256;DHT22;26989;45.524;10.938;2023-01-28T18:09:59;2.50;99.90
41256;DHT22;26989;45.524;10.938;2023-01-28T18:12:26;2.50;99.90
41256;DHT22;26989;45.524;10.938;2023-01-28T18:14:53;2.50;99.90
41256;DHT22;26989;45.524;10.938;2023-01-28T18:17:20;2.50;99.90